This is the latest recevied weather packets stored in our database for station/object ED4YAZ-13. If no packets are shown the sender has not sent any weather packets the latest 10 day(s).
| Time | Temp. | Humidity | Pressure | Rain* | Wind** | Luminosity | Snow |
|---|---|---|---|---|---|---|---|
| 1777412354 | 12.78° C | 70% | 1011.3 hPa | - | - | - | - |
| 1777411754 | 12.78° C | 69% | 1011 hPa | - | - | - | - |
| 1777411154 | 13.33° C | 66% | 1010.6 hPa | - | - | - | - |
| 1777410554 | 13.33° C | 71% | 1010.5 hPa | - | - | - | - |
| 1777409954 | 12.78° C | 77% | 1011.1 hPa | - | - | - | - |
| 1777409354 | 12.78° C | 74% | 1011 hPa | - | - | - | - |
| 1777408754 | 12.78° C | 78% | 1011.2 hPa | - | - | - | - |
| 1777408154 | 12.78° C | 77% | 1011.4 hPa | - | - | - | - |
| 1777407554 | 12.78° C | 78% | 1011.4 hPa | - | - | - | - |
| 1777406954 | 12.78° C | 79% | 1011 hPa | - | - | - | - |
| 1777406354 | 12.78° C | 79% | 1011 hPa | - | - | - | - |
| 1777405754 | 13.33° C | 75% | 1010.8 hPa | - | - | - | - |
| 1777404646 | 13.89° C | 71% | 1010.3 hPa | - | - | - | - |
| 1777404032 | 14.44° C | 66% | 1010 hPa | - | - | - | - |
| 1777403432 | 16.67° C | 55% | 1008.8 hPa | - | - | - | - |
| 1777402857 | 17.22° C | 50% | 1008 hPa | - | - | - | - |
| 1777402821 | 17.22° C | 50% | 1008 hPa | - | - | - | - |
| 1777402221 | 17.22° C | 50% | 1007.9 hPa | - | - | - | - |
| 1777401621 | 17.22° C | 49% | 1007.8 hPa | - | - | - | - |
| 1777401021 | 17.22° C | 49% | 1007.7 hPa | - | - | - | - |
| 1777400415 | 17.78° C | 48% | 1007.6 hPa | - | - | - | - |
| 1777399813 | 17.78° C | 47% | 1007.6 hPa | - | - | - | - |
| 1777399213 | 18.33° C | 46% | 1007.2 hPa | - | - | - | - |
| 1777398611 | 18.33° C | 47% | 1007.1 hPa | - | - | - | - |
| 1777398012 | 18.89° C | 46% | 1007.2 hPa | - | - | - | - |
* Rain since midnight (hover to see other rain measurements)
** Current wind speed in m/s (hover to see current wind gust speed)